الصفحة الرئيسية
METAR-TAF:

METAR-TAF

مطار :

بايسون, أريزونا, الولايات المتحدة

دائرة عرض: 34-15-25N, خط طول: 111-20-21W, ارتفاع: 1572 متر

مراقبة الطقس الحالي

تاريخ ووقت الإصدار 17 دقيقة قبل الساعة 10:15UTC
رياح هادئة
درجة الحرارة 2°درجة مئوية
الرطوبة 75%
ضغط 1018 hPa
الرؤية: 16.1 كم
سماء صافية

METAR: KPAN 221015Z AUTO 00000KT 10SM CLR 02/M02 A3006 RMK AO2

زمن: 03:32 (10:32 UTC)


TAF: مفقودة

أرصاد الطقس والتوقعات من أكثر من 4000 مطار (تقارير الطقس للمطار METAR والتنبؤ بالطقس بالمطارTAF).

المحطات المتاحة هي النقط الصفراء والحمراء على الخريطة.

حرك المؤشر فوق النقطة لمعرفة اسم المحطة.

ثم انقر لمعرفة أرصاد وتوقعات الطقس.

لتغيير الخارطة: اضغط على الأزرار الخضراء مع رمز الصليب الأسود للتكبير. على الزر الأخضر مع شرطة للتصغير، أو على الأسهم الخضراء للخرائط المجاورة.


METAR-TAF: